createdAt,value
2018-08-07T00:00:42.423Z,28.2
2018-08-07T00:01:32.478Z,28.2
2018-08-07T00:02:22.445Z,28.2
2018-08-07T00:03:12.645Z,28.1
2018-08-07T00:04:03.006Z,28.1
2018-08-07T00:04:52.739Z,28.1
2018-08-07T00:05:42.818Z,28.1
2018-08-07T00:06:33.141Z,28.1
2018-08-07T00:07:23.219Z,28.1
2018-08-07T00:08:13.072Z,28.1
2018-08-07T00:09:02.844Z,28.1
2018-08-07T00:09:53.116Z,28.1
2018-08-07T00:10:43.246Z,28.1
2018-08-07T00:11:33.244Z,28.1
2018-08-07T00:12:23.285Z,28.1
2018-08-07T00:13:13.664Z,28.1
2018-08-07T00:14:03.733Z,28.1
2018-08-07T00:14:53.517Z,28.1
2018-08-07T00:15:44.050Z,28.1
2018-08-07T00:16:33.893Z,28.1
2018-08-07T00:17:23.667Z,28.1
2018-08-07T00:18:13.756Z,28.1
2018-08-07T00:19:04.343Z,28.1
2018-08-07T00:19:54.194Z,28.1
2018-08-07T00:20:44.248Z,28.1
2018-08-07T00:21:33.779Z,28.1
2018-08-07T00:22:23.865Z,28.1
2018-08-07T00:23:13.918Z,28.1
2018-08-07T00:24:03.923Z,28.1
2018-08-07T00:24:54.025Z,28.1
2018-08-07T00:25:44.325Z,28.1
2018-08-07T00:26:34.687Z,28.1
2018-08-07T00:27:24.488Z,28.1
2018-08-07T00:28:15.147Z,28.1
2018-08-07T00:29:04.610Z,28.1
2018-08-07T00:29:54.385Z,28.1
2018-08-07T00:30:44.707Z,28
2018-08-07T00:31:35.394Z,28
2018-08-07T00:32:25.094Z,28
2018-08-07T00:33:15.185Z,28
2018-08-07T00:34:05.554Z,28
2018-08-07T00:34:55.070Z,28
2018-08-07T00:35:45.700Z,28
2018-08-07T00:36:35.211Z,28
2018-08-07T00:37:25.272Z,28
2018-08-07T00:38:15.880Z,28
2018-08-07T00:39:05.934Z,28
2018-08-07T00:39:55.986Z,28
2018-08-07T00:40:45.827Z,28
2018-08-07T00:41:35.913Z,28
2018-08-07T00:42:24.741Z,28
2018-08-07T00:43:15.971Z,28
2018-08-07T00:44:05.791Z,28
2018-08-07T00:44:55.838Z,28
2018-08-07T00:45:45.645Z,28
2018-08-07T00:46:35.998Z,28
2018-08-07T00:47:25.728Z,28
2018-08-07T00:48:16.108Z,28
2018-08-07T00:49:05.556Z,27.9
2018-08-07T00:49:56.463Z,27.9
2018-08-07T00:50:46.278Z,28
2018-08-07T00:51:36.647Z,27.9
2018-08-07T00:52:26.087Z,28
2018-08-07T00:53:15.890Z,28
2018-08-07T00:54:06.531Z,28
2018-08-07T00:54:56.371Z,27.9
2018-08-07T00:55:46.374Z,27.9
2018-08-07T00:56:36.433Z,27.9
2018-08-07T00:57:26.520Z,27.9
2018-08-07T00:58:17.128Z,28
2018-08-07T00:59:06.616Z,27.9
2018-08-07T00:59:56.154Z,27.9
2018-08-07T01:00:47.033Z,27.9
2018-08-07T01:01:37.184Z,27.9
2018-08-07T01:02:26.597Z,27.9
2018-08-07T01:03:17.538Z,27.9
2018-08-07T01:04:07.317Z,27.9
2018-08-07T01:04:57.338Z,27.9
2018-08-07T01:05:46.835Z,27.9
2018-08-07T01:06:37.800Z,27.9
2018-08-07T01:07:28.240Z,27.9
2018-08-07T01:08:17.908Z,27.9
2018-08-07T01:09:07.953Z,27.9
2018-08-07T01:09:58.035Z,27.9
2018-08-07T01:10:48.092Z,27.9
2018-08-07T01:11:38.432Z,27.9
2018-08-07T01:12:28.075Z,27.9
2018-08-07T01:13:17.999Z,27.9
2018-08-07T01:14:08.637Z,27.9
2018-08-07T01:14:58.697Z,27.9
2018-08-07T01:15:48.499Z,27.9
2018-08-07T01:16:38.827Z,27.9
2018-08-07T01:17:28.899Z,27.9
2018-08-07T01:18:18.084Z,27.9
2018-08-07T01:19:08.454Z,27.9
2018-08-07T01:19:57.662Z,27.9
2018-08-07T01:20:48.865Z,27.9
2018-08-07T01:21:38.929Z,27.9
2018-08-07T01:22:29.280Z,27.9
2018-08-07T01:23:19.076Z,27.9
2018-08-07T01:24:08.862Z,27.9
2018-08-07T01:24:59.152Z,27.9
2018-08-07T01:25:48.684Z,27.9
2018-08-07T01:26:39.594Z,27.9
2018-08-07T01:27:29.679Z,27.9
2018-08-07T01:28:19.431Z,27.9
2018-08-07T01:29:09.201Z,27.9
2018-08-07T01:29:59.661Z,27.9
2018-08-07T01:30:49.630Z,27.9
2018-08-07T01:31:39.923Z,27.9
2018-08-07T01:32:30.051Z,27.9
2018-08-07T01:33:20.116Z,27.9
2018-08-07T01:34:09.879Z,27.9
2018-08-07T01:35:00.265Z,27.9
2018-08-07T01:35:50.014Z,27.9
2018-08-07T01:36:40.357Z,27.9
2018-08-07T01:37:30.404Z,27.9
2018-08-07T01:38:19.910Z,27.9
2018-08-07T01:39:10.260Z,27.9
2018-08-07T01:40:00.335Z,27.9
2018-08-07T01:40:50.390Z,27.9
2018-08-07T01:41:40.787Z,27.9
2018-08-07T01:42:30.288Z,27.9
2018-08-07T01:43:20.658Z,27.9
2018-08-07T01:44:10.397Z,27.9
2018-08-07T01:45:00.402Z,27.9
2018-08-07T01:45:50.767Z,27.9
2018-08-07T01:46:40.835Z,27.9
2018-08-07T01:47:30.629Z,27.9
2018-08-07T01:48:20.687Z,27.9
2018-08-07T01:49:11.322Z,27.9
2018-08-07T01:50:00.550Z,27.9
2018-08-07T01:50:51.117Z,27.9
2018-08-07T01:51:41.202Z,27.9
2018-08-07T01:52:30.702Z,27.9
2018-08-07T01:53:21.576Z,27.9
2018-08-07T01:54:11.702Z,27.9
2018-08-07T01:55:01.182Z,27.9
2018-08-07T01:55:51.005Z,27.9
2018-08-07T01:56:41.584Z,27.9
2018-08-07T01:57:31.937Z,27.9
2018-08-07T01:58:21.524Z,27.9
2018-08-07T01:59:11.292Z,27.9
2018-08-07T02:00:01.089Z,27.9
2018-08-07T02:00:51.482Z,27.9
2018-08-07T05:07:03.667Z,27.9
2018-08-07T05:07:53.349Z,28
2018-08-07T05:08:43.665Z,28
2018-08-07T05:09:33.674Z,28
2018-08-07T05:10:23.864Z,28
2018-08-07T05:11:14.138Z,27.9
2018-08-07T05:12:04.230Z,28
2018-08-07T05:12:53.952Z,28
2018-08-07T05:13:43.978Z,28
2018-08-07T05:14:34.312Z,28
2018-08-07T05:15:23.553Z,28
2018-08-07T05:16:14.483Z,28
2018-08-07T05:17:04.612Z,28
2018-08-07T05:17:54.321Z,28
2018-08-07T05:18:44.155Z,28
2018-08-07T05:19:34.784Z,28
2018-08-07T05:20:24.555Z,28
2018-08-07T05:21:14.585Z,28
2018-08-07T05:22:04.110Z,28
2018-08-07T05:22:54.704Z,28
2018-08-07T05:23:44.332Z,28
2018-08-07T05:24:34.847Z,28
2018-08-07T05:25:25.177Z,27.9
2018-08-07T05:26:14.700Z,27.9
2018-08-07T05:27:54.556Z,27.8
2018-08-07T05:28:45.794Z,27.7
2018-08-07T05:29:35.530Z,27.6
2018-08-07T05:30:25.012Z,27.6
2018-08-07T05:31:14.873Z,27.6
2018-08-07T05:32:04.594Z,27.5
2018-08-07T05:32:55.762Z,27.5
2018-08-07T05:33:44.976Z,27.4
2018-08-07T05:34:35.889Z,27.4
2018-08-07T05:35:25.688Z,27.4
2018-08-07T05:36:15.200Z,27.4
2018-08-07T05:37:05.849Z,27.4
2018-08-07T05:37:56.169Z,27.4
2018-08-07T05:38:45.676Z,27.4
2018-08-07T05:39:35.910Z,27.4
2018-08-07T05:40:40.755Z,27.3
2018-08-07T05:41:15.339Z,27.3
2018-08-07T05:42:05.910Z,27.3
2018-08-07T05:42:56.771Z,27.3
2018-08-07T05:43:46.368Z,27.3
2018-08-07T05:44:35.880Z,31.7
2018-08-07T05:45:25.859Z,37.9
2018-08-07T05:46:16.516Z,38.3
2018-08-07T05:47:06.871Z,37.3
2018-08-07T05:47:56.624Z,36.3
2018-08-07T05:48:46.483Z,35.6
2018-08-07T05:49:37.038Z,35.2
2018-08-07T05:50:29.422Z,34.8
2018-08-07T05:51:22.109Z,34.3
2018-08-07T05:52:07.231Z,34
2018-08-07T05:52:57.003Z,33.8
2018-08-07T05:53:47.608Z,33.6
2018-08-07T05:54:37.418Z,33.4
2018-08-07T05:55:27.486Z,33.1
2018-08-07T05:56:17.025Z,32.9
2018-08-07T05:57:06.808Z,33.1
2018-08-07T05:57:57.775Z,39.1
2018-08-07T05:59:01.379Z,40.4
2018-08-07T05:59:37.830Z,40.8
2018-08-07T06:00:27.333Z,40.3
2018-08-07T06:01:17.128Z,39.4
2018-08-07T06:02:08.094Z,38.5
2018-08-07T06:02:58.051Z,37.7
2018-08-07T06:03:47.381Z,37.1
2018-08-07T06:04:38.074Z,36.6
2018-08-07T06:05:28.256Z,36.1
2018-08-07T06:06:17.774Z,35.7
2018-08-07T06:07:07.846Z,35.4
2018-08-07T06:07:58.703Z,35.1
2018-08-07T06:09:03.187Z,34.8
2018-08-07T06:09:37.229Z,34.5
2018-08-07T06:10:28.096Z,34.3
2018-08-07T06:11:18.451Z,34.1
2018-08-07T06:12:08.515Z,37.9
2018-08-07T06:12:58.823Z,40.5
2018-08-07T06:13:47.893Z,41.9
2018-08-07T06:14:38.533Z,43
2018-08-07T06:15:28.811Z,43.3
2018-08-07T06:16:18.043Z,43.2
2018-08-07T06:17:08.714Z,43.2
2018-08-07T06:17:58.725Z,43.3
2018-08-07T06:18:48.258Z,43.5
2018-08-07T06:19:39.370Z,43.7
2018-08-07T06:20:29.444Z,43.9
2018-08-07T06:21:19.449Z,44.1
2018-08-07T06:22:09.548Z,44.2
2018-08-07T06:22:59.577Z,44.3
2018-08-07T06:23:49.424Z,44.4
2018-08-07T06:24:39.974Z,44.5
2018-08-07T06:25:29.606Z,44.6
2018-08-07T06:26:19.573Z,44.8
2018-08-07T06:27:09.698Z,44.9
2018-08-07T06:27:59.232Z,44.9
2018-08-07T06:28:48.988Z,45.1
2018-08-07T06:29:39.586Z,45.1
2018-08-07T06:30:28.457Z,45.3
2018-08-07T06:31:19.995Z,45.4
2018-08-07T06:32:09.829Z,45.5
2018-08-07T06:32:59.216Z,45.6
2018-08-07T06:33:49.703Z,45.7
2018-08-07T06:34:40.376Z,45.8
2018-08-07T06:35:29.776Z,45.9
2018-08-07T06:36:19.322Z,46
2018-08-07T06:37:10.159Z,46.1
2018-08-07T06:38:00.491Z,46.3
2018-08-07T06:38:50.588Z,46.3
2018-08-07T06:39:40.997Z,46.4
2018-08-07T06:40:30.474Z,46.5
2018-08-07T06:41:20.803Z,46.6
2018-08-07T06:42:10.569Z,46.7
2018-08-07T06:43:01.806Z,46.8
2018-08-07T06:43:51.263Z,46.9
2018-08-07T06:44:41.337Z,47
2018-08-07T06:45:31.375Z,47.1
2018-08-07T06:46:21.162Z,47.2
2018-08-07T06:47:10.682Z,47.3
2018-08-07T06:48:01.945Z,47.4
2018-08-07T06:48:51.614Z,47.4
2018-08-07T06:49:41.421Z,47.6
2018-08-07T06:50:31.493Z,47.7
2018-08-07T06:51:21.486Z,47.8
2018-08-07T06:52:11.866Z,47.9
2018-08-07T06:53:01.741Z,47.9
2018-08-07T06:54:06.191Z,48.1
2018-08-07T06:54:41.245Z,48.2
2018-08-07T06:55:31.862Z,48.3
2018-08-07T06:56:21.677Z,48.3
2018-08-07T06:57:12.347Z,48.4
2018-08-07T06:58:02.355Z,48.6
2018-08-07T06:58:52.161Z,48.6
2018-08-07T06:59:42.477Z,48.8
2018-08-07T07:00:32.523Z,48.8
2018-08-07T07:01:22.587Z,48.9
2018-08-07T07:02:12.419Z,49.1
2018-08-07T07:03:03.105Z,49.1
2018-08-07T07:03:52.306Z,49.3
2018-08-07T07:04:42.350Z,49.3
2018-08-07T07:05:33.004Z,49.4
2018-08-07T07:06:23.417Z,49.5
2018-08-07T07:07:13.049Z,49.6
2018-08-07T07:08:02.030Z,49.8
2018-08-07T07:08:52.959Z,49.9
2018-08-07T07:09:42.924Z,49.9
2018-08-07T07:10:32.843Z,50.1
2018-08-07T07:11:23.132Z,50.1
2018-08-07T07:12:13.197Z,50.3
2018-08-07T07:13:03.546Z,50.3
2018-08-07T07:13:53.071Z,50.4
2018-08-07T07:14:42.796Z,50.6
2018-08-07T07:15:32.873Z,50.7
2018-08-07T07:16:23.780Z,50.8
2018-08-07T07:17:13.003Z,50.9
2018-08-07T07:18:03.348Z,51
2018-08-07T07:18:52.694Z,51.1
2018-08-07T07:19:42.529Z,50.9
2018-08-07T07:20:32.858Z,50.7
2018-08-07T07:21:23.642Z,50.6
2018-08-07T07:22:13.441Z,50.7
2018-08-07T07:23:03.536Z,50.9
2018-08-07T07:23:53.835Z,51
2018-08-07T07:24:43.954Z,51.1
2018-08-07T07:25:33.798Z,51.3
2018-08-07T07:26:24.085Z,51.3
2018-08-07T07:27:14.030Z,51.4
2018-08-07T07:28:04.124Z,51.6
2018-08-07T07:28:54.467Z,51.7
2018-08-07T07:29:44.345Z,51.9
2018-08-07T07:30:34.847Z,52
2018-08-07T07:31:24.155Z,52.1
2018-08-07T07:32:14.991Z,52.3
2018-08-07T07:33:05.037Z,52.4
2018-08-07T07:33:54.840Z,52.6
2018-08-07T07:34:46.028Z,52.7
2018-08-07T07:35:35.276Z,52.8
2018-08-07T07:36:25.095Z,52.9
2018-08-07T07:37:15.417Z,53.1
2018-08-07T07:38:05.469Z,53.2
2018-08-07T07:38:55.511Z,53.3
2018-08-07T07:39:45.030Z,53.4
2018-08-07T07:40:35.116Z,53.5
2018-08-07T07:41:25.252Z,53.6
2018-08-07T07:42:15.282Z,53.8
2018-08-07T07:43:05.582Z,53.9
2018-08-07T07:43:54.321Z,54
2018-08-07T07:44:45.765Z,54.1
2018-08-07T07:45:35.848Z,54.3
2018-08-07T07:46:25.852Z,54.4
2018-08-07T07:47:15.860Z,54.5
2018-08-07T07:48:05.684Z,54.7
2018-08-07T07:48:56.301Z,54.8
2018-08-07T07:49:46.373Z,54.8
2018-08-07T07:50:36.496Z,54.8
2018-08-07T07:51:25.941Z,54.8
2018-08-07T07:52:16.495Z,54.9
2018-08-07T07:53:21.035Z,55.1
2018-08-07T07:53:57.048Z,55.2
2018-08-07T07:54:46.488Z,55.3
2018-08-07T07:55:36.259Z,55.4
2018-08-07T07:56:26.878Z,55.6
2018-08-07T07:57:16.918Z,55.7
2018-08-07T07:58:07.181Z,55.8
2018-08-07T07:58:56.793Z,55.9
2018-08-07T07:59:46.824Z,56.1
2018-08-07T08:00:36.696Z,56.1
2018-08-07T08:01:27.272Z,56.3
2018-08-07T08:02:17.331Z,56.4
2018-08-07T08:03:07.428Z,56.6
2018-08-07T08:03:56.908Z,56.6
2018-08-07T08:04:47.561Z,56.8
2018-08-07T08:05:38.011Z,56.9
2018-08-07T08:06:27.638Z,57
2018-08-07T08:07:17.478Z,57.1
2018-08-07T08:08:07.254Z,57.3
2018-08-07T08:08:57.548Z,57.4
2018-08-07T08:09:47.880Z,57.5
2018-08-07T08:10:37.437Z,57.6
2018-08-07T08:11:27.514Z,57.7
2018-08-07T08:12:17.839Z,57.8
2018-08-07T08:13:08.190Z,57.9
2018-08-07T08:13:58.264Z,58.1
2018-08-07T08:14:48.038Z,58.2
2018-08-07T08:15:38.442Z,58.3
2018-08-07T08:16:28.242Z,58.4
2018-08-07T08:17:18.261Z,58.5
2018-08-07T08:18:07.458Z,58.6
2018-08-07T08:18:58.380Z,58.8
2018-08-07T08:19:48.449Z,58.9
2018-08-07T08:20:38.235Z,59
2018-08-07T08:21:28.544Z,59.1
2018-08-07T08:22:18.885Z,59.3
2018-08-07T08:23:08.699Z,59.4
2018-08-07T08:23:58.772Z,59.5
2018-08-07T08:24:48.790Z,59.6
2018-08-07T08:25:39.162Z,59.7
2018-08-07T08:26:28.960Z,59.8
2018-08-07T08:27:18.814Z,59.9
2018-08-07T08:28:08.309Z,60.1
2018-08-07T08:29:00.080Z,60.1
2018-08-07T08:29:50.321Z,60.3
2018-08-07T08:30:38.425Z,60.4
2018-08-07T08:31:29.602Z,60.4
2018-08-07T08:32:19.481Z,60.6
2018-08-07T08:33:09.171Z,60.8
2018-08-07T08:33:59.789Z,60.9
2018-08-07T08:34:49.881Z,60.9
2018-08-07T08:35:40.869Z,60.7
2018-08-07T08:36:29.975Z,60.5
2018-08-07T08:37:19.733Z,60.6
2018-08-07T08:38:10.104Z,60.6
2018-08-07T08:39:00.210Z,60.8
2018-08-07T08:39:49.975Z,60.9
2018-08-07T08:40:39.306Z,60.9
2018-08-07T08:41:29.608Z,61.1
2018-08-07T08:42:20.490Z,61.2
2018-08-07T08:43:09.961Z,61.3
2018-08-07T08:44:00.016Z,61.2
2018-08-07T08:44:50.434Z,61.3
2018-08-07T08:45:40.461Z,61.4
2018-08-07T08:46:30.758Z,61.5
2018-08-07T08:47:20.838Z,61.6
2018-08-07T08:48:10.719Z,61.8
2018-08-07T08:49:00.435Z,61.8
2018-08-07T08:49:49.763Z,62
2018-08-07T08:50:40.268Z,62.1
2018-08-07T08:51:30.910Z,62.2
2018-08-07T08:52:21.247Z,62.3
2018-08-07T08:53:11.049Z,62.4
2018-08-07T08:54:01.160Z,62.5
2018-08-07T08:54:50.917Z,62.6
2018-08-07T08:55:40.741Z,62.8
2018-08-07T08:56:31.596Z,62.8
2018-08-07T08:57:21.662Z,62.9
2018-08-07T08:58:11.441Z,63.1
2018-08-07T08:59:01.292Z,63.2
2018-08-07T08:59:51.825Z,63.3
2018-08-07T09:00:40.793Z,63.4
2018-08-07T09:01:30.683Z,63.4
2018-08-07T09:02:22.039Z,63.6
2018-08-07T09:03:11.304Z,63.7
2018-08-07T09:04:01.905Z,63.8
2018-08-07T09:21:26.404Z,58.6
2018-08-07T09:22:17.342Z,58.9
2018-08-07T09:23:07.395Z,59.3
2018-08-07T09:23:56.840Z,59.6
2018-08-07T09:24:47.477Z,59.8
2018-08-07T09:25:39.892Z,60.1
2018-08-07T09:26:27.359Z,60.4
2018-08-07T09:27:17.371Z,60.6
2018-08-07T09:28:07.725Z,60.8
2018-08-07T09:28:57.589Z,61.1
2018-08-07T09:29:47.566Z,61.3
2018-08-07T09:30:37.418Z,61.5
2018-08-07T09:31:27.632Z,61.7
2018-08-07T09:32:17.817Z,61.9
2018-08-07T09:33:08.752Z,62.1
2018-08-07T09:33:57.933Z,62.4
2018-08-07T09:34:48.291Z,62.5
2018-08-07T09:35:37.776Z,62.7
2018-08-07T09:36:28.413Z,62.8
2018-08-07T09:37:18.186Z,63
2018-08-07T09:38:08.551Z,63.1
2018-08-07T09:38:58.605Z,63.3
2018-08-07T09:39:49.133Z,63.4
2018-08-07T09:40:38.502Z,63.6
2018-08-07T09:41:28.519Z,63.7
2018-08-07T09:42:18.877Z,63.8
2018-08-07T09:43:08.689Z,63.9
2018-08-07T09:43:58.783Z,64
2018-08-07T09:44:48.864Z,64.2
2018-08-07T09:45:38.868Z,64.3
2018-08-07T09:46:29.521Z,64.4
2018-08-07T09:47:18.503Z,64.5
2018-08-07T09:48:09.348Z,64.6
2018-08-07T09:48:59.367Z,64.8
2018-08-07T09:49:50.474Z,64.8
2018-08-07T09:50:38.972Z,64.9
2018-08-07T09:51:29.344Z,65
2018-08-07T09:52:20.049Z,65.1
2018-08-07T09:53:08.871Z,65.2
2018-08-07T09:53:59.762Z,65.3
2018-08-07T09:54:49.569Z,65.3
2018-08-07T09:55:39.358Z,65.4
2018-08-07T09:56:29.678Z,65.6
2018-08-07T09:57:19.724Z,65.6
2018-08-07T09:58:10.104Z,65.7
2018-08-07T09:58:59.601Z,65.8
2018-08-07T09:59:49.941Z,65.9
2018-08-07T10:00:39.780Z,66
2018-08-07T10:01:30.083Z,66.1
2018-08-07T10:02:20.428Z,66.1
2018-08-07T10:03:10.246Z,66.2
2018-08-07T10:03:59.982Z,66.3
2018-08-07T10:04:49.784Z,66.3
2018-08-07T10:05:41.145Z,66.4
2018-08-07T10:06:30.513Z,66.5
2018-08-07T10:07:20.800Z,66.6
2018-08-07T10:08:10.335Z,66.6
2018-08-07T10:09:00.385Z,66.7
2018-08-07T10:09:50.987Z,66.8
2018-08-07T10:10:40.821Z,66.9
2018-08-07T10:11:31.131Z,66.9
2018-08-07T10:12:21.254Z,66.9
2018-08-07T10:13:11.283Z,67
2018-08-07T10:14:00.754Z,67.1
2018-08-07T10:14:50.852Z,67.1
2018-08-07T10:15:41.174Z,67.2
2018-08-07T10:16:31.546Z,67.3
2018-08-07T10:17:21.396Z,67.3
2018-08-07T10:18:11.158Z,67.4
2018-08-07T10:19:01.734Z,67.4
2018-08-07T10:19:51.275Z,67.4
2018-08-07T10:20:41.883Z,67.5
2018-08-07T10:21:31.920Z,67.6
2018-08-07T10:22:21.466Z,67.6
2018-08-07T10:23:12.528Z,67.7
2018-08-07T10:24:01.821Z,67.8
2018-08-07T10:24:52.151Z,67.8
2018-08-07T10:25:42.238Z,67.9
2018-08-07T10:26:32.278Z,67.9
2018-08-07T10:27:22.590Z,68
2018-08-07T10:28:11.931Z,68.1
2018-08-07T10:29:02.203Z,68.1
2018-08-07T10:29:52.319Z,68.2
2018-08-07T10:30:42.618Z,68.3
2018-08-07T10:31:32.926Z,68.3
2018-08-07T10:32:21.959Z,68.3
2018-08-07T10:33:12.387Z,68.4
2018-08-07T10:34:02.916Z,68.4
2018-08-07T10:34:53.026Z,68.5
2018-08-07T10:35:42.741Z,68.6
2018-08-07T10:36:32.563Z,68.6
2018-08-07T10:37:23.147Z,68.6
2018-08-07T10:38:12.968Z,68.7
2018-08-07T10:39:03.016Z,68.8
2018-08-07T10:39:53.166Z,68.8
2018-08-07T10:40:44.664Z,68.9
2018-08-07T10:41:32.947Z,68.9
2018-08-07T10:42:23.023Z,69
2018-08-07T10:43:15.360Z,69.1
2018-08-07T10:44:03.747Z,69.1
2018-08-07T10:44:52.944Z,69.1
2018-08-07T10:45:43.526Z,69.2
2018-08-07T10:46:34.452Z,69.3
2018-08-07T10:47:23.657Z,69.3
2018-08-07T10:48:14.046Z,69.3
2018-08-07T10:49:03.545Z,69.4
2018-08-07T10:49:53.637Z,69.4
2018-08-07T10:50:43.966Z,69.5
2018-08-07T10:51:33.716Z,69.6
2018-08-07T10:52:25.219Z,69.6
2018-08-07T10:53:13.851Z,69.7
2018-08-07T10:54:04.475Z,69.7
2018-08-07T10:54:54.526Z,69.8
2018-08-07T10:55:43.780Z,69.8
2018-08-07T10:56:35.845Z,69.9
2018-08-07T10:57:24.498Z,69.9
2018-08-07T10:58:15.025Z,69.9
2018-08-07T10:59:04.771Z,70
2018-08-07T10:59:54.102Z,70.1
2018-08-07T11:00:44.400Z,70.1
2018-08-07T11:01:34.826Z,70.2
2018-08-07T11:02:25.108Z,70.2
2018-08-07T11:03:14.901Z,70.3
2018-08-07T11:04:05.028Z,70.3
2018-08-07T11:04:55.306Z,70.3
2018-08-07T11:05:46.123Z,70.4
2018-08-07T11:06:35.497Z,70.4
2018-08-07T11:07:25.208Z,70.5
2018-08-07T11:08:15.544Z,70.5
2018-08-07T11:09:05.092Z,70.6
2018-08-07T11:09:55.754Z,70.6
2018-08-07T11:10:45.236Z,70.7
2018-08-07T11:11:35.844Z,70.7
2018-08-07T11:12:25.900Z,70.8
2018-08-07T11:13:15.998Z,70.8
2018-08-07T11:14:05.754Z,70.9
2018-08-07T11:14:56.117Z,70.9
2018-08-07T11:15:45.898Z,70.9
2018-08-07T11:16:35.933Z,71
2018-08-07T11:17:26.048Z,71
2018-08-07T11:18:15.547Z,71.1
2018-08-07T11:19:05.883Z,71.1
2018-08-07T11:19:56.228Z,71.1
2018-08-07T11:20:46.048Z,71.1
2018-08-07T11:21:36.114Z,71.2
2018-08-07T11:22:26.406Z,71.3
2018-08-07T11:23:16.773Z,71.3
2018-08-07T11:24:06.823Z,71.4
2018-08-07T11:24:56.746Z,71.4
2018-08-07T11:25:46.701Z,71.4
2018-08-07T11:26:37.037Z,71.5
2018-08-07T11:27:26.858Z,71.6
2018-08-07T11:28:16.335Z,71.6
2018-08-07T11:29:06.965Z,71.6
2018-08-07T11:29:58.104Z,71.6
2018-08-07T11:30:46.812Z,71.7
2018-08-07T11:31:37.445Z,71.7
2018-08-07T11:32:27.225Z,71.7
2018-08-07T11:33:17.005Z,71.7
2018-08-07T11:34:07.635Z,71.8
2018-08-07T11:34:57.443Z,71.8
2018-08-07T11:35:47.510Z,71.8
2018-08-07T11:36:37.520Z,71.9
2018-08-07T11:37:26.830Z,71.9
2018-08-07T11:38:17.765Z,71.9
2018-08-07T11:39:07.827Z,71.9
2018-08-07T11:39:57.892Z,71.9
2018-08-07T11:40:47.867Z,71.9
2018-08-07T11:41:37.676Z,72
2018-08-07T11:42:27.701Z,72.1
2018-08-07T11:43:17.900Z,72.1
2018-08-07T11:44:08.212Z,72.2
2018-08-07T11:44:58.217Z,72.2
2018-08-07T11:45:48.574Z,72.2
2018-08-07T11:46:38.042Z,72.3
2018-08-07T11:47:28.106Z,72.3
2018-08-07T11:48:19.185Z,72.3
2018-08-07T11:49:08.743Z,72.4
2018-08-07T11:49:58.816Z,72.4
2018-08-07T11:50:48.698Z,72.4
2018-08-07T11:51:39.010Z,72.4
2018-08-07T11:52:29.341Z,72.4
2018-08-07T11:53:19.163Z,72.5
2018-08-07T11:54:09.070Z,72.5
2018-08-07T11:54:58.976Z,72.6
2018-08-07T11:55:49.290Z,72.6
2018-08-07T11:56:39.106Z,72.6
2018-08-07T11:57:28.612Z,72.6
2018-08-07T11:58:19.351Z,72.7
2018-08-07T11:59:09.448Z,72.8
2018-08-07T11:59:59.152Z,72.8
2018-08-07T12:00:49.417Z,72.8
2018-08-07T12:01:39.761Z,72.8
2018-08-07T12:02:29.153Z,72.9
2018-08-07T12:03:19.612Z,72.9
2018-08-07T12:04:09.768Z,72.9
2018-08-07T12:04:59.997Z,72.9
2018-08-07T12:05:50.125Z,72.9
2018-08-07T12:06:40.155Z,72.9
2018-08-07T12:07:30.242Z,72.7
2018-08-07T12:08:19.288Z,72.5
2018-08-07T12:09:09.527Z,72.3
2018-08-07T12:10:00.440Z,72
2018-08-07T12:10:50.214Z,71.8
2018-08-07T12:11:40.533Z,71.8
2018-08-07T12:12:30.611Z,71.7
2018-08-07T12:13:19.855Z,71.5
2018-08-07T12:14:10.515Z,71.4
2018-08-07T12:15:00.557Z,71.3
2018-08-07T12:15:49.809Z,71.2
2018-08-07T12:16:40.688Z,71.3
2018-08-07T12:17:30.992Z,71.3
2018-08-07T12:18:21.041Z,71.4
2018-08-07T12:19:10.561Z,71.7
2018-08-07T12:20:00.915Z,71.8
2018-08-07T12:20:50.971Z,71.6
2018-08-07T12:21:41.614Z,71.3
2018-08-07T12:22:31.423Z,71.2
2018-08-07T12:23:21.156Z,71
2018-08-07T12:24:11.048Z,70.9
2018-08-07T12:25:01.570Z,70.9
2018-08-07T12:25:51.406Z,70.8
2018-08-07T12:26:41.408Z,70.7
2018-08-07T12:27:31.770Z,70.6
2018-08-07T12:28:21.843Z,70.7
2018-08-07T12:29:11.615Z,70.9
2018-08-07T12:30:01.720Z,71.2
2018-08-07T12:30:51.236Z,71.4
2018-08-07T12:31:41.858Z,71.4
2018-08-07T12:32:31.664Z,71.4
2018-08-07T12:33:21.970Z,71.3
2018-08-07T12:34:12.336Z,71.5
2018-08-07T12:35:02.685Z,71.6
2018-08-07T12:35:51.972Z,71.6
2018-08-07T12:36:41.961Z,71.5
2018-08-07T12:37:32.026Z,71.6
2018-08-07T12:38:22.116Z,71.7
2018-08-07T12:39:12.697Z,71.8
2018-08-07T12:40:02.513Z,71.7
2018-08-07T12:40:51.476Z,71.5
2018-08-07T12:41:42.934Z,71.3
2018-08-07T12:42:32.751Z,71.1
2018-08-07T12:43:23.123Z,71
2018-08-07T12:44:12.586Z,70.9
2018-08-07T12:45:02.923Z,70.8
2018-08-07T12:45:52.420Z,70.7
2018-08-07T12:46:44.264Z,70.6
2018-08-07T12:47:33.340Z,70.4
2018-08-07T12:48:23.413Z,70.4
2018-08-07T12:49:13.198Z,70.3
2018-08-07T12:50:03.281Z,70.1
2018-08-07T12:50:53.424Z,70.1
2018-08-07T12:51:43.703Z,70
2018-08-07T12:52:33.761Z,69.9
2018-08-07T12:53:24.941Z,69.8
2018-08-07T12:54:13.867Z,69.8
2018-08-07T12:55:03.458Z,69.7
2018-08-07T12:55:53.998Z,69.6
2018-08-07T12:56:43.778Z,69.5
2018-08-07T12:57:34.167Z,69.4
2018-08-07T12:58:23.959Z,69.3
2018-08-07T12:59:13.456Z,69.3
2018-08-07T13:00:04.117Z,69.1
2018-08-07T13:00:53.901Z,69.1
2018-08-07T13:01:44.478Z,68.9
2018-08-07T13:02:33.759Z,68.9
2018-08-07T13:03:24.352Z,68.8
2018-08-07T13:04:14.651Z,68.7
2018-08-07T13:05:04.280Z,68.6
2018-08-07T13:05:54.520Z,68.4
2018-08-07T13:06:44.886Z,68.3
2018-08-07T13:07:34.970Z,68.3
2018-08-07T13:08:23.897Z,68.1
2018-08-07T13:09:14.791Z,68
2018-08-07T13:10:04.596Z,67.9
2018-08-07T13:10:55.206Z,67.8
2018-08-07T13:11:45.308Z,67.6
2018-08-07T13:12:35.345Z,67.6
2018-08-07T13:13:25.104Z,67.4
2018-08-07T13:14:15.491Z,67.4
2018-08-07T13:15:05.258Z,67.2
2018-08-07T13:15:55.345Z,67.1
2018-08-07T13:16:44.915Z,66.9
2018-08-07T13:17:35.914Z,66.8
2018-08-07T13:18:25.229Z,66.8
2018-08-07T13:19:15.874Z,66.6
2018-08-07T13:20:05.657Z,66.5
2018-08-07T13:20:55.180Z,66.4
2018-08-07T13:21:46.058Z,66.3
2018-08-07T13:22:36.138Z,66.1
2018-08-07T13:23:25.394Z,66
2018-08-07T13:24:15.460Z,65.9
2018-08-07T13:25:05.751Z,65.8
2018-08-07T13:25:57.139Z,65.7
2018-08-07T13:26:46.438Z,65.6
2018-08-07T13:27:35.971Z,65.4
2018-08-07T13:28:26.615Z,65.3
2018-08-07T13:29:16.051Z,65.3
2018-08-07T13:30:06.132Z,65.1
2018-08-07T13:30:55.933Z,65.1
2018-08-07T13:31:46.788Z,64.9
2018-08-07T13:32:36.622Z,64.8
2018-08-07T13:33:26.846Z,64.8
2018-08-07T13:34:17.047Z,64.6
2018-08-07T13:35:06.843Z,64.6
2018-08-07T13:35:56.340Z,64.5
2018-08-07T13:36:46.255Z,64.4
2018-08-07T13:37:37.395Z,64.3
2018-08-07T13:38:27.186Z,64.3
2018-08-07T13:39:16.746Z,64.2
2018-08-07T13:40:07.026Z,64.1
2018-08-07T13:40:57.670Z,64
2018-08-07T13:41:46.820Z,63.9
2018-08-07T13:42:37.442Z,63.8
2018-08-07T13:43:27.206Z,63.7
2018-08-07T13:44:17.838Z,63.6
2018-08-07T13:45:07.865Z,63.6
2018-08-07T13:45:57.986Z,63.4
2018-08-07T13:46:48.034Z,63.2
2018-08-07T13:47:38.039Z,62.6
2018-08-07T13:48:28.144Z,62
2018-08-07T13:49:17.915Z,61.4
2018-08-07T13:50:08.254Z,60.8
2018-08-07T13:50:58.305Z,60.2
2018-08-07T13:51:47.820Z,59.7
2018-08-07T13:52:38.455Z,59.2
2018-08-07T13:53:28.523Z,58.8
2018-08-07T13:54:18.577Z,58.4
2018-08-07T13:55:08.372Z,58
2018-08-07T13:55:59.879Z,57.6
2018-08-07T13:56:48.553Z,57.4
2018-08-07T13:57:38.359Z,57.1
2018-08-07T13:58:28.700Z,56.8
2018-08-07T13:59:18.437Z,56.6
2018-08-07T14:00:08.805Z,56.3
2018-08-07T14:00:58.867Z,56.1
2018-08-07T14:01:48.092Z,55.9
2018-08-07T14:02:38.699Z,55.7
2018-08-07T14:03:29.218Z,55.5
2018-08-07T14:04:18.582Z,55.3
2018-08-07T14:05:08.931Z,55.1
2018-08-07T14:05:59.275Z,55
2018-08-07T14:06:48.812Z,54.8
2018-08-07T14:07:39.117Z,54.7
2018-08-07T14:08:29.727Z,54.6
2018-08-07T14:09:20.081Z,54.4
2018-08-07T14:10:09.883Z,54.3
2018-08-07T14:10:59.110Z,54.1
2018-08-07T14:11:49.710Z,54.1
2018-08-07T14:12:39.355Z,53.9
2018-08-07T14:13:29.836Z,53.8
2018-08-07T14:14:19.627Z,53.7
2018-08-07T14:15:09.674Z,53.6
2018-08-07T14:15:59.773Z,53.4
2018-08-07T14:16:49.611Z,53.4
2018-08-07T14:17:40.429Z,53.3
2018-08-07T14:18:30.499Z,53.1
2018-08-07T14:19:20.111Z,53.1
2018-08-07T14:20:10.344Z,52.9
2018-08-07T14:20:59.872Z,52.8
2018-08-07T14:21:50.208Z,52.8
2018-08-07T14:22:40.550Z,52.6
2018-08-07T14:23:30.918Z,52.6
2018-08-07T14:24:20.436Z,52.4
2018-08-07T14:25:59.960Z,52.3
2018-08-07T14:26:50.638Z,52.2
2018-08-07T14:27:40.497Z,52.1
2018-08-07T14:28:31.125Z,52
2018-08-07T14:30:10.570Z,51.8
2018-08-07T14:31:01.196Z,51.8
2018-08-07T14:31:51.315Z,51.7
2018-08-07T14:32:41.629Z,51.6
2018-08-07T14:33:30.847Z,51.5
2018-08-07T14:34:21.447Z,51.4
2018-08-07T14:35:10.981Z,51.3